Terminal Aerodrome Forecast
Issued by NWS North Platte, NE

Home | Current Version | Previous Version | Text Only | Print | Product List | Glossary Off
Versions: 1 2 3 4 5 6 7 8 9 10 11 12 13 14 15

000
FTUS43 KLBF 141721
TAFVTN
TAF
KVTN 141721Z 1418/1518 33020G30KT P6SM VCSH BKN020 OVC040
      TEMPO 1418/1421 33020G30KT 5SM -SN BR OVC020
     FM142300 33014G22KT P6SM BKN030
     FM150100 31010KT P6SM BKN030
     FM150500 27007KT P6SM SCT030 BKN200
     FM150900 24007KT P6SM BKN200=

USA.gov is the U.S. government's official web portal to all federal, state and local government web resources and services.